sensor_id;sensor_type;location;lat;lon;timestamp;pressure;altitude;pressure_sealevel;temperature;humidity
63090;BME280;49174;43.198;27.824;2023-02-10T04:26:14;103898.88;;;-6.83;85.18
63090;BME280;49174;43.198;27.824;2023-02-10T04:45:48;103900.66;;;-6.85;86.52
63090;BME280;49174;43.198;27.824;2023-02-10T05:01:44;103919.00;;;-6.80;85.89
63090;BME280;49174;43.198;27.824;2023-02-10T05:04:09;103920.81;;;-6.90;86.90
63090;BME280;49174;43.198;27.824;2023-02-10T05:06:35;103912.06;;;-6.90;87.31
63090;BME280;49174;43.198;27.824;2023-02-10T05:09:00;103912.06;;;-6.92;87.69
63090;BME280;49174;43.198;27.824;2023-02-10T05:11:26;103912.94;;;-6.93;88.21
63090;BME280;49174;43.198;27.824;2023-02-10T05:13:51;103916.41;;;-6.82;87.71
63090;BME280;49174;43.198;27.824;2023-02-10T05:16:17;103909.38;;;-6.78;87.58
63090;BME280;49174;43.198;27.824;2023-02-10T05:18:43;103907.63;;;-6.85;87.20
63090;BME280;49174;43.198;27.824;2023-02-10T05:21:11;103910.25;;;-6.85;87.80
63090;BME280;49174;43.198;27.824;2023-02-10T05:23:38;103905.94;;;-6.88;87.75
63090;BME280;49174;43.198;27.824;2023-02-10T05:26:05;103905.03;;;-6.88;87.79
63090;BME280;49174;43.198;27.824;2023-02-10T05:28:30;103905.88;;;-6.79;88.48
63090;BME280;49174;43.198;27.824;2023-02-10T05:30:56;103915.47;;;-6.75;88.33
63090;BME280;49174;43.198;27.824;2023-02-10T05:33:22;103905.00;;;-6.76;88.50
63090;BME280;49174;43.198;27.824;2023-02-10T05:35:48;103912.84;;;-6.75;88.94
63090;BME280;49174;43.198;27.824;2023-02-10T05:38:13;103911.94;;;-6.67;88.12
63090;BME280;49174;43.198;27.824;2023-02-10T05:40:39;103911.97;;;-6.75;87.61
63090;BME280;49174;43.198;27.824;2023-02-10T05:43:04;103917.25;;;-6.73;87.23
63090;BME280;49174;43.198;27.824;2023-02-10T05:45:30;103914.66;;;-6.84;86.65
63090;BME280;49174;43.198;27.824;2023-02-10T05:47:55;103918.13;;;-6.85;86.61
63090;BME280;49174;43.198;27.824;2023-02-10T05:50:21;103924.28;;;-6.91;86.20
63090;BME280;49174;43.198;27.824;2023-02-10T05:52:47;103923.41;;;-6.87;85.91
63090;BME280;49174;43.198;27.824;2023-02-10T05:55:13;103932.19;;;-6.92;86.56
63090;BME280;49174;43.198;27.824;2023-02-10T05:57:38;103928.66;;;-6.84;85.93
63090;BME280;49174;43.198;27.824;2023-02-10T06:00:07;103926.91;;;-6.85;85.85
63090;BME280;49174;43.198;27.824;2023-02-10T06:02:35;103931.28;;;-6.87;85.99
63090;BME280;49174;43.198;27.824;2023-02-10T06:05:00;103936.53;;;-6.84;85.64
63090;BME280;49174;43.198;27.824;2023-02-10T06:07:27;103939.16;;;-6.84;86.36
63090;BME280;49174;43.198;27.824;2023-02-10T06:09:52;103921.63;;;-6.79;86.46
63090;BME280;49174;43.198;27.824;2023-02-10T06:12:18;103934.69;;;-6.66;86.06
63090;BME280;49174;43.198;27.824;2023-02-10T06:14:44;103925.91;;;-6.61;86.32
63090;BME280;49174;43.198;27.824;2023-02-10T06:17:09;103933.72;;;-6.42;85.61
63090;BME280;49174;43.198;27.824;2023-02-10T06:19:39;103937.97;;;-6.24;85.39
63090;BME280;49174;43.198;27.824;2023-02-10T06:22:06;103934.47;;;-6.25;84.97
63090;BME280;49174;43.198;27.824;2023-02-10T06:24:32;103928.28;;;-6.19;85.16
63090;BME280;49174;43.198;27.824;2023-02-10T06:26:57;103933.53;;;-6.15;84.47
63090;BME280;49174;43.198;27.824;2023-02-10T06:29:23;103932.66;;;-6.12;83.79
63090;BME280;49174;43.198;27.824;2023-02-10T06:31:49;103927.25;;;-5.97;83.55
63090;BME280;49174;43.198;27.824;2023-02-10T06:34:15;103940.31;;;-5.88;83.31
63090;BME280;49174;43.198;27.824;2023-02-10T06:36:41;103932.41;;;-5.86;82.61
63090;BME280;49174;43.198;27.824;2023-02-10T06:39:07;103938.47;;;-5.79;82.28
63090;BME280;49174;43.198;27.824;2023-02-10T06:41:32;103940.19;;;-5.72;81.80
63090;BME280;49174;43.198;27.824;2023-02-10T06:43:58;103934.91;;;-5.72;82.02
63090;BME280;49174;43.198;27.824;2023-02-10T06:46:24;103932.22;;;-5.66;81.73
63090;BME280;49174;43.198;27.824;2023-02-10T06:48:50;103927.72;;;-5.52;81.01
63090;BME280;49174;43.198;27.824;2023-02-10T06:51:15;103935.63;;;-5.53;79.78
63090;BME280;49174;43.198;27.824;2023-02-10T06:53:41;103931.22;;;-5.48;79.14
63090;BME280;49174;43.198;27.824;2023-02-10T06:56:08;103931.97;;;-5.39;80.16
63090;BME280;49174;43.198;27.824;2023-02-10T06:58:34;103930.94;;;-5.22;80.06
63090;BME280;49174;43.198;27.824;2023-02-10T07:01:00;103928.34;;;-5.25;79.26
63090;BME280;49174;43.198;27.824;2023-02-10T07:03:26;103930.78;;;-5.07;79.44
63090;BME280;49174;43.198;27.824;2023-02-10T07:05:52;103931.53;;;-4.99;79.60
63090;BME280;49174;43.198;27.824;2023-02-10T07:08:18;103931.44;;;-4.91;78.16
63090;BME280;49174;43.198;27.824;2023-02-10T07:10:43;103934.00;;;-4.83;78.25
63090;BME280;49174;43.198;27.824;2023-02-10T07:13:09;103934.75;;;-4.74;78.19
63090;BME280;49174;43.198;27.824;2023-02-10T07:15:34;103935.66;;;-4.75;77.08
63090;BME280;49174;43.198;27.824;2023-02-10T07:18:00;103934.66;;;-4.64;77.21
63090;BME280;49174;43.198;27.824;2023-02-10T07:20:26;103933.75;;;-4.63;76.38
63090;BME280;49174;43.198;27.824;2023-02-10T07:22:53;103937.19;;;-4.60;75.33
63090;BME280;49174;43.198;27.824;2023-02-10T07:25:19;103938.81;;;-4.50;75.38
63090;BME280;49174;43.198;27.824;2023-02-10T07:27:46;103931.69;;;-4.41;74.63
63090;BME280;49174;43.198;27.824;2023-02-10T07:30:12;103943.13;;;-4.42;74.52
63090;BME280;49174;43.198;27.824;2023-02-10T07:32:38;103937.69;;;-4.29;74.71
63090;BME280;49174;43.198;27.824;2023-02-10T07:35:04;103945.44;;;-4.18;75.27
63090;BME280;49174;43.198;27.824;2023-02-10T07:37:30;103935.69;;;-4.14;75.42
63090;BME280;49174;43.198;27.824;2023-02-10T07:39:57;103943.56;;;-4.13;74.35
63090;BME280;49174;43.198;27.824;2023-02-10T07:42:22;103939.84;;;-3.99;72.96
63090;BME280;49174;43.198;27.824;2023-02-10T07:44:48;103945.88;;;-3.90;73.04
63090;BME280;49174;43.198;27.824;2023-02-10T07:47:14;103941.38;;;-3.85;74.37
63090;BME280;49174;43.198;27.824;2023-02-10T07:49:41;103938.66;;;-3.80;72.51
63090;BME280;49174;43.198;27.824;2023-02-10T07:52:07;103927.88;;;-3.66;72.27
63090;BME280;49174;43.198;27.824;2023-02-10T07:54:32;103936.44;;;-3.52;72.95
63090;BME280;49174;43.198;27.824;2023-02-10T07:56:58;103939.00;;;-3.47;71.25
63090;BME280;49174;43.198;27.824;2023-02-10T07:59:23;103942.38;;;-3.41;70.48
63090;BME280;49174;43.198;27.824;2023-02-10T08:01:49;103930.16;;;-3.46;70.83
63090;BME280;49174;43.198;27.824;2023-02-10T08:04:15;103926.44;;;-3.34;72.24
63090;BME280;49174;43.198;27.824;2023-02-10T08:06:40;103926.22;;;-3.24;71.95
63090;BME280;49174;43.198;27.824;2023-02-10T08:09:07;103928.00;;;-3.23;69.72
63090;BME280;49174;43.198;27.824;2023-02-10T08:11:33;103925.03;;;-3.06;69.63
63090;BME280;49174;43.198;27.824;2023-02-10T08:14:00;103921.91;;;-2.83;70.08
63090;BME280;49174;43.198;27.824;2023-02-10T08:16:26;103931.41;;;-2.74;70.09
63090;BME280;49174;43.198;27.824;2023-02-10T08:18:51;103925.03;;;-2.64;68.51
63090;BME280;49174;43.198;27.824;2023-02-10T08:21:17;103931.16;;;-2.62;66.84
63090;BME280;49174;43.198;27.824;2023-02-10T08:23:42;103932.84;;;-2.58;67.52
63090;BME280;49174;43.198;27.824;2023-02-10T08:26:10;103922.88;;;-2.45;68.07
63090;BME280;49174;43.198;27.824;2023-02-10T08:28:38;103915.41;;;-2.28;69.08
63090;BME280;49174;43.198;27.824;2023-02-10T08:31:06;103922.09;;;-2.11;66.99
63090;BME280;49174;43.198;27.824;2023-02-10T08:33:34;103918.22;;;-1.98;66.34
63090;BME280;49174;43.198;27.824;2023-02-10T08:36:05;103909.66;;;-1.72;65.75
63090;BME280;49174;43.198;27.824;2023-02-10T08:38:32;103916.16;;;-1.51;64.35
63090;BME280;49174;43.198;27.824;2023-02-10T08:40:58;103923.69;;;-1.36;64.68
63090;BME280;49174;43.198;27.824;2023-02-10T08:43:24;103921.81;;;-1.30;63.01
63090;BME280;49174;43.198;27.824;2023-02-10T08:45:50;103915.31;;;-1.20;62.80
63090;BME280;49174;43.198;27.824;2023-02-10T08:48:15;103915.03;;;-1.09;61.91
63090;BME280;49174;43.198;27.824;2023-02-10T08:50:41;103920.88;;;-0.97;61.27
63090;BME280;49174;43.198;27.824;2023-02-10T08:53:07;103928.25;;;-0.78;60.85
63090;BME280;49174;43.198;27.824;2023-02-10T08:55:32;103928.66;;;-0.61;53.18
63090;BME280;49174;43.198;27.824;2023-02-10T08:57:58;103927.19;;;-0.41;56.92
63090;BME280;49174;43.198;27.824;2023-02-10T09:00:23;103929.53;;;-0.32;51.70
63090;BME280;49174;43.198;27.824;2023-02-10T09:02:49;103919.44;;;-0.19;51.68
63090;BME280;49174;43.198;27.824;2023-02-10T09:05:15;103917.97;;;-0.02;49.62
63090;BME280;49174;43.198;27.824;2023-02-10T09:07:41;103917.66;;;0.08;48.02
63090;BME280;49174;43.198;27.824;2023-02-10T09:10:09;103905.75;;;0.19;47.41
63090;BME280;49174;43.198;27.824;2023-02-10T09:12:36;103907.38;;;0.24;47.24
63090;BME280;49174;43.198;27.824;2023-02-10T09:15:02;103904.59;;;0.28;46.30
63090;BME280;49174;43.198;27.824;2023-02-10T09:17:28;103901.66;;;0.36;44.53
63090;BME280;49174;43.198;27.824;2023-02-10T09:19:53;103905.44;;;0.29;45.90
63090;BME280;49174;43.198;27.824;2023-02-10T09:22:19;103890.88;;;0.40;47.29
63090;BME280;49174;43.198;27.824;2023-02-10T09:24:44;103898.13;;;0.60;45.68
63090;BME280;49174;43.198;27.824;2023-02-10T09:27:12;103885.41;;;0.70;45.38
63090;BME280;49174;43.198;27.824;2023-02-10T09:29:38;103885.03;;;0.81;43.97
63090;BME280;49174;43.198;27.824;2023-02-10T09:32:03;103886.47;;;0.89;42.78
63090;BME280;49174;43.198;27.824;2023-02-10T09:34:29;103882.66;;;0.97;43.49
63090;BME280;49174;43.198;27.824;2023-02-10T09:36:56;103887.13;;;0.95;41.79
63090;BME280;49174;43.198;27.824;2023-02-10T09:39:23;103884.31;;;0.99;41.72
63090;BME280;49174;43.198;27.824;2023-02-10T09:45:05;103873.56;;;1.26;41.63
63090;BME280;49174;43.198;27.824;2023-02-10T09:50:24;103878.59;;;1.10;41.37
63090;BME280;49174;43.198;27.824;2023-02-10T09:53:05;103867.66;;;1.41;41.58
63090;BME280;49174;43.198;27.824;2023-02-10T09:55:43;103868.78;;;1.58;41.03
63090;BME280;49174;43.198;27.824;2023-02-10T09:58:17;103868.09;;;1.52;40.36
63090;BME280;49174;43.198;27.824;2023-02-10T10:00:45;103852.31;;;1.48;39.81
63090;BME280;49174;43.198;27.824;2023-02-10T10:03:18;103842.28;;;1.76;39.68
63090;BME280;49174;43.198;27.824;2023-02-10T10:11:31;103827.06;;;2.00;38.50
63090;BME280;49174;43.198;27.824;2023-02-10T10:13:58;103829.75;;;2.21;39.26
63090;BME280;49174;43.198;27.824;2023-02-10T10:33:28;103806.31;;;2.87;38.50
63090;BME280;49174;43.198;27.824;2023-02-10T10:35:56;103800.13;;;3.06;39.96
63090;BME280;49174;43.198;27.824;2023-02-10T10:38:35;103792.75;;;3.30;37.79
63090;BME280;49174;43.198;27.824;2023-02-10T10:41:10;103789.72;;;3.38;37.74
63090;BME280;49174;43.198;27.824;2023-02-10T10:46:41;103787.78;;;3.58;38.13
63090;BME280;49174;43.198;27.824;2023-02-10T10:49:08;103785.91;;;3.78;38.14
63090;BME280;49174;43.198;27.824;2023-02-10T10:51:34;103772.16;;;3.68;37.73
63090;BME280;49174;43.198;27.824;2023-02-10T10:54:01;103770.91;;;3.75;40.97
63090;BME280;49174;43.198;27.824;2023-02-10T10:56:45;103771.13;;;4.06;38.18
63090;BME280;49174;43.198;27.824;2023-02-10T10:59:25;103770.63;;;4.15;40.21
63090;BME280;49174;43.198;27.824;2023-02-10T11:01:52;103767.16;;;4.30;37.84
63090;BME280;49174;43.198;27.824;2023-02-10T11:04:20;103764.69;;;4.43;37.17
63090;BME280;49174;43.198;27.824;2023-02-10T11:06:48;103766.28;;;4.47;37.54
63090;BME280;49174;43.198;27.824;2023-02-10T11:09:20;103759.03;;;4.49;38.15
63090;BME280;49174;43.198;27.824;2023-02-10T11:11:47;103751.41;;;4.41;37.33
63090;BME280;49174;43.198;27.824;2023-02-10T11:14:16;103750.28;;;4.45;38.20
63090;BME280;49174;43.198;27.824;2023-02-10T11:16:50;103746.53;;;4.50;36.48
63090;BME280;49174;43.198;27.824;2023-02-10T11:19:26;103739.63;;;4.61;35.83
63090;BME280;49174;43.198;27.824;2023-02-10T11:21:52;103725.84;;;4.69;37.37
63090;BME280;49174;43.198;27.824;2023-02-10T11:24:32;103720.66;;;4.66;36.43
63090;BME280;49174;43.198;27.824;2023-02-10T11:29:52;103717.66;;;4.88;37.74
63090;BME280;49174;43.198;27.824;2023-02-10T11:37:42;103706.94;;;5.04;37.38
63090;BME280;49174;43.198;27.824;2023-02-10T11:40:21;103702.59;;;5.17;37.89
63090;BME280;49174;43.198;27.824;2023-02-10T11:42:50;103702.84;;;5.28;36.29
63090;BME280;49174;43.198;27.824;2023-02-10T11:45:20;103699.56;;;5.23;35.61
63090;BME280;49174;43.198;27.824;2023-02-10T11:47:46;103700.03;;;5.46;35.65
63090;BME280;49174;43.198;27.824;2023-02-10T11:50:31;103698.53;;;5.56;34.35
63090;BME280;49174;43.198;27.824;2023-02-10T11:52:57;103698.91;;;5.50;35.64
63090;BME280;49174;43.198;27.824;2023-02-10T11:55:31;103694.97;;;5.41;36.19
63090;BME280;49174;43.198;27.824;2023-02-10T12:06:45;103685.09;;;5.42;36.92
63090;BME280;49174;43.198;27.824;2023-02-10T12:09:38;103669.41;;;5.35;37.42
63090;BME280;49174;43.198;27.824;2023-02-10T12:52:14;103673.13;;;5.63;40.96
63090;BME280;49174;43.198;27.824;2023-02-10T13:05:53;103653.22;;;5.81;40.06
63090;BME280;49174;43.198;27.824;2023-02-10T13:08:30;103644.78;;;5.88;40.63
63090;BME280;49174;43.198;27.824;2023-02-10T13:11:51;103654.59;;;5.89;39.83
63090;BME280;49174;43.198;27.824;2023-02-10T13:14:26;103651.56;;;5.95;41.24
63090;BME280;49174;43.198;27.824;2023-02-10T13:42:27;103648.81;;;5.66;37.28
63090;BME280;49174;43.198;27.824;2023-02-10T14:14:56;103646.19;;;4.42;38.13
63090;BME280;49174;43.198;27.824;2023-02-10T14:17:26;103663.63;;;4.34;39.06
63090;BME280;49174;43.198;27.824;2023-02-10T14:19:57;103655.31;;;4.22;39.11
63090;BME280;49174;43.198;27.824;2023-02-10T14:25:31;103651.56;;;3.93;38.90
63090;BME280;49174;43.198;27.824;2023-02-10T14:27:58;103646.84;;;3.98;39.18
63090;BME280;49174;43.198;27.824;2023-02-10T14:30:41;103649.53;;;3.98;39.00
63090;BME280;49174;43.198;27.824;2023-02-10T14:33:29;103647.16;;;3.92;39.82
63090;BME280;49174;43.198;27.824;2023-02-10T14:35:58;103643.84;;;3.87;39.19
63090;BME280;49174;43.198;27.824;2023-02-10T14:38:31;103643.84;;;3.87;39.39
63090;BME280;49174;43.198;27.824;2023-02-10T14:40:58;103637.91;;;3.82;39.48
63090;BME280;49174;43.198;27.824;2023-02-10T14:43:28;103643.44;;;3.79;39.46
63090;BME280;49174;43.198;27.824;2023-02-10T14:45:56;103643.50;;;3.77;38.60
63090;BME280;49174;43.198;27.824;2023-02-10T14:48:24;103645.88;;;3.66;39.81
63090;BME280;49174;43.198;27.824;2023-02-10T15:08:00;103664.72;;;2.56;41.73
63090;BME280;49174;43.198;27.824;2023-02-10T15:10:40;103663.50;;;2.44;41.33
63090;BME280;49174;43.198;27.824;2023-02-10T15:15:52;103661.81;;;2.22;42.59
63090;BME280;49174;43.198;27.824;2023-02-10T15:18:21;103652.69;;;2.09;42.81
63090;BME280;49174;43.198;27.824;2023-02-10T15:23:47;103658.97;;;1.88;43.16
63090;BME280;49174;43.198;27.824;2023-02-10T15:29:12;103653.41;;;1.73;43.34
63090;BME280;49174;43.198;27.824;2023-02-10T15:34:30;103661.59;;;1.48;43.52
63090;BME280;49174;43.198;27.824;2023-02-10T15:36:59;103660.06;;;1.43;44.11
63090;BME280;49174;43.198;27.824;2023-02-10T15:42:26;103663.63;;;1.21;45.25
63090;BME280;49174;43.198;27.824;2023-02-10T15:45:15;103680.53;;;0.98;45.58
63090;BME280;49174;43.198;27.824;2023-02-10T15:48:02;103678.69;;;0.78;46.22
63090;BME280;49174;43.198;27.824;2023-02-10T15:53:20;103682.09;;;0.36;47.01
63090;BME280;49174;43.198;27.824;2023-02-10T15:55:49;103692.31;;;0.22;48.26
63090;BME280;49174;43.198;27.824;2023-02-10T15:58:15;103690.09;;;0.11;49.42
63090;BME280;49174;43.198;27.824;2023-02-10T16:00:42;103696.50;;;0.06;49.92
63090;BME280;49174;43.198;27.824;2023-02-10T16:03:11;103689.81;;;-0.06;49.79
63090;BME280;49174;43.198;27.824;2023-02-10T16:05:38;103696.19;;;-0.10;50.07
63090;BME280;49174;43.198;27.824;2023-02-10T16:08:06;103702.69;;;-0.19;50.59
63090;BME280;49174;43.198;27.824;2023-02-10T16:10:35;103691.50;;;-0.29;50.74
63090;BME280;49174;43.198;27.824;2023-02-10T16:13:00;103696.09;;;-0.34;51.33
63090;BME280;49174;43.198;27.824;2023-02-10T16:15:26;103696.31;;;-0.40;52.11
63090;BME280;49174;43.198;27.824;2023-02-10T16:17:55;103704.47;;;-0.44;52.65
63090;BME280;49174;43.198;27.824;2023-02-10T16:20:25;103706.41;;;-0.50;53.06
63090;BME280;49174;43.198;27.824;2023-02-10T16:22:51;103709.03;;;-0.50;53.02
63090;BME280;49174;43.198;27.824;2023-02-10T16:25:18;103711.03;;;-0.56;53.56
63090;BME280;49174;43.198;27.824;2023-02-10T16:27:45;103721.84;;;-0.62;53.41
63090;BME280;49174;43.198;27.824;2023-02-10T16:30:25;103721.41;;;-0.75;54.36
63090;BME280;49174;43.198;27.824;2023-02-10T16:32:52;103724.88;;;-1.01;54.41
63090;BME280;49174;43.198;27.824;2023-02-10T16:35:18;103727.41;;;-1.26;55.77
63090;BME280;49174;43.198;27.824;2023-02-10T16:37:44;103729.84;;;-1.20;56.17
63090;BME280;49174;43.198;27.824;2023-02-10T16:40:25;103733.13;;;-1.12;55.41
63090;BME280;49174;43.198;27.824;2023-02-10T16:42:51;103740.31;;;-1.16;55.84
63090;BME280;49174;43.198;27.824;2023-02-10T16:45:20;103732.09;;;-1.06;55.55
63090;BME280;49174;43.198;27.824;2023-02-10T16:47:46;103736.38;;;-1.02;55.94
63090;BME280;49174;43.198;27.824;2023-02-10T16:50:25;103730.06;;;-0.98;55.78
63090;BME280;49174;43.198;27.824;2023-02-10T16:52:53;103733.75;;;-1.02;55.77
63090;BME280;49174;43.198;27.824;2023-02-10T16:55:19;103731.91;;;-1.00;55.86
63090;BME280;49174;43.198;27.824;2023-02-10T16:57:46;103727.81;;;-1.10;56.54
63090;BME280;49174;43.198;27.824;2023-02-10T17:00:13;103734.19;;;-1.18;56.07
63090;BME280;49174;43.198;27.824;2023-02-10T17:02:39;103738.09;;;-1.29;56.21
63090;BME280;49174;43.198;27.824;2023-02-10T17:05:08;103727.06;;;-1.45;56.53
63090;BME280;49174;43.198;27.824;2023-02-10T17:07:35;103726.59;;;-1.58;56.80
63090;BME280;49174;43.198;27.824;2023-02-10T17:10:02;103735.28;;;-1.53;57.04
63090;BME280;49174;43.198;27.824;2023-02-10T17:12:28;103729.34;;;-1.61;56.97
63090;BME280;49174;43.198;27.824;2023-02-10T17:14:53;103728.91;;;-1.77;57.31
63090;BME280;49174;43.198;27.824;2023-02-10T17:17:19;103723.06;;;-1.90;58.99
63090;BME280;49174;43.198;27.824;2023-02-10T17:19:45;103732.75;;;-1.89;61.09
63090;BME280;49174;43.198;27.824;2023-02-10T17:22:10;103736.16;;;-1.84;62.19
63090;BME280;49174;43.198;27.824;2023-02-10T17:24:36;103734.38;;;-1.85;62.06
63090;BME280;49174;43.198;27.824;2023-02-10T17:27:01;103732.22;;;-1.70;62.45
63090;BME280;49174;43.198;27.824;2023-02-10T17:29:27;103728.88;;;-1.75;62.94
63090;BME280;49174;43.198;27.824;2023-02-10T17:31:52;103741.25;;;-1.77;62.93
63090;BME280;49174;43.198;27.824;2023-02-10T17:34:18;103742.00;;;-1.72;62.89
63090;BME280;49174;43.198;27.824;2023-02-10T17:36:44;103739.56;;;-1.80;62.77
63090;BME280;49174;43.198;27.824;2023-02-10T17:39:15;103740.50;;;-1.81;62.80
63090;BME280;49174;43.198;27.824;2023-02-10T17:41:50;103741.00;;;-2.01;62.51
63090;BME280;49174;43.198;27.824;2023-02-10T17:44:16;103741.19;;;-2.07;62.49
63090;BME280;49174;43.198;27.824;2023-02-10T17:46:43;103743.00;;;-2.09;62.72
63090;BME280;49174;43.198;27.824;2023-02-10T17:49:13;103741.44;;;-2.16;62.81
63090;BME280;49174;43.198;27.824;2023-02-10T17:51:39;103742.09;;;-2.08;61.98
63090;BME280;49174;43.198;27.824;2023-02-10T17:54:04;103742.03;;;-2.05;62.09
63090;BME280;49174;43.198;27.824;2023-02-10T17:56:30;103749.03;;;-2.04;61.20
63090;BME280;49174;43.198;27.824;2023-02-10T17:58:56;103751.09;;;-2.15;61.25
63090;BME280;49174;43.198;27.824;2023-02-10T18:06:45;103753.69;;;-2.48;64.10
63090;BME280;49174;43.198;27.824;2023-02-10T18:09:11;103749.44;;;-2.54;65.30
63090;BME280;49174;43.198;27.824;2023-02-10T18:11:39;103749.59;;;-2.60;66.22
63090;BME280;49174;43.198;27.824;2023-02-10T18:14:05;103751.44;;;-2.63;67.65
63090;BME280;49174;43.198;27.824;2023-02-10T18:40:48;103768.34;;;-2.71;71.52
63090;BME280;49174;43.198;27.824;2023-02-10T18:43:20;103771.75;;;-2.65;71.01
63090;BME280;49174;43.198;27.824;2023-02-10T18:45:48;103766.47;;;-2.65;70.79
63090;BME280;49174;43.198;27.824;2023-02-10T18:48:14;103766.69;;;-2.75;71.15
63090;BME280;49174;43.198;27.824;2023-02-10T18:56:16;103759.19;;;-2.93;70.64
63090;BME280;49174;43.198;27.824;2023-02-10T18:58:43;103772.53;;;-2.99;71.11
63090;BME280;49174;43.198;27.824;2023-02-10T19:01:19;103775.56;;;-3.18;71.36
63090;BME280;49174;43.198;27.824;2023-02-10T19:03:45;103773.19;;;-3.28;71.93
63090;BME280;49174;43.198;27.824;2023-02-10T19:06:12;103768.84;;;-3.32;72.50
63090;BME280;49174;43.198;27.824;2023-02-10T19:08:38;103765.50;;;-3.39;72.78
63090;BME280;49174;43.198;27.824;2023-02-10T19:19:31;103767.06;;;-3.32;74.38
63090;BME280;49174;43.198;27.824;2023-02-10T19:21:57;103771.50;;;-3.32;73.43
63090;BME280;49174;43.198;27.824;2023-02-10T19:24:23;103769.72;;;-3.32;74.30
63090;BME280;49174;43.198;27.824;2023-02-10T19:40:18;103775.63;;;-3.63;76.56
63090;BME280;49174;43.198;27.824;2023-02-10T21:08:58;103776.53;;;-5.23;75.07
63090;BME280;49174;43.198;27.824;2023-02-10T21:14:25;103766.06;;;-5.29;75.42
63090;BME280;49174;43.198;27.824;2023-02-10T21:16:51;103767.69;;;-5.19;74.79
63090;BME280;49174;43.198;27.824;2023-02-10T21:32:47;103767.81;;;-5.28;75.06
63090;BME280;49174;43.198;27.824;2023-02-10T21:43:18;103773.69;;;-5.08;73.11
63090;BME280;49174;43.198;27.824;2023-02-10T21:45:48;103774.69;;;-5.17;73.48
63090;BME280;49174;43.198;27.824;2023-02-10T21:56:20;103767.94;;;-5.37;77.18
63090;BME280;49174;43.198;27.824;2023-02-10T21:58:46;103766.25;;;-5.45;78.08
63090;BME280;49174;43.198;27.824;2023-02-10T22:22:48;103763.59;;;-5.40;83.30
63090;BME280;49174;43.198;27.824;2023-02-10T22:25:14;103771.50;;;-5.42;83.08
63090;BME280;49174;43.198;27.824;2023-02-10T22:27:39;103766.13;;;-5.35;83.33
63090;BME280;49174;43.198;27.824;2023-02-10T22:30:05;103766.03;;;-5.26;83.36
63090;BME280;49174;43.198;27.824;2023-02-10T22:32:31;103767.84;;;-5.31;83.80
63090;BME280;49174;43.198;27.824;2023-02-10T22:34:57;103763.41;;;-5.26;85.84
63090;BME280;49174;43.198;27.824;2023-02-10T22:37:22;103771.09;;;-5.11;87.16
63090;BME280;49174;43.198;27.824;2023-02-10T22:39:47;103770.28;;;-5.16;86.49
63090;BME280;49174;43.198;27.824;2023-02-10T22:42:13;103760.78;;;-5.26;87.25
63090;BME280;49174;43.198;27.824;2023-02-10T22:44:39;103766.00;;;-5.23;87.04
63090;BME280;49174;43.198;27.824;2023-02-10T22:47:07;103762.47;;;-5.21;86.99
